sensor_id;sensor_type;location;lat;lon;timestamp;pressure;altitude;pressure_sealevel;temperature;humidity
49393;BME280;35268;42.642;23.308;2023-02-28T00:00:11;94362.63;;;7.69;81.52
49393;BME280;35268;42.642;23.308;2023-02-28T00:02:37;94362.88;;;7.72;81.43
49393;BME280;35268;42.642;23.308;2023-02-28T00:05:04;94360.16;;;7.77;81.18
49393;BME280;35268;42.642;23.308;2023-02-28T00:07:31;94362.75;;;7.82;80.30
49393;BME280;35268;42.642;23.308;2023-02-28T00:09:56;94361.66;;;7.83;80.27
49393;BME280;35268;42.642;23.308;2023-02-28T00:12:22;94350.34;;;7.78;80.00
49393;BME280;35268;42.642;23.308;2023-02-28T00:14:48;94365.97;;;7.79;79.91
49393;BME280;35268;42.642;23.308;2023-02-28T00:17:14;94366.25;;;7.78;79.70
49393;BME280;35268;42.642;23.308;2023-02-28T00:19:39;94362.59;;;7.74;79.53
49393;BME280;35268;42.642;23.308;2023-02-28T00:22:04;94365.75;;;7.76;79.58
49393;BME280;35268;42.642;23.308;2023-02-28T00:24:30;94371.56;;;7.78;79.42
49393;BME280;35268;42.642;23.308;2023-02-28T00:26:56;94373.72;;;7.76;79.27
49393;BME280;35268;42.642;23.308;2023-02-28T00:29:21;94374.78;;;7.75;79.10
49393;BME280;35268;42.642;23.308;2023-02-28T00:31:46;94374.22;;;7.78;78.78
49393;BME280;35268;42.642;23.308;2023-02-28T00:34:12;94363.63;;;7.78;78.34
49393;BME280;35268;42.642;23.308;2023-02-28T00:36:37;94363.09;;;7.76;78.70
49393;BME280;35268;42.642;23.308;2023-02-28T00:39:03;94372.91;;;7.75;79.08
49393;BME280;35268;42.642;23.308;2023-02-28T00:41:28;94367.06;;;7.78;78.86
49393;BME280;35268;42.642;23.308;2023-02-28T00:43:54;94357.81;;;7.76;78.81
49393;BME280;35268;42.642;23.308;2023-02-28T00:46:19;94359.44;;;7.72;78.72
49393;BME280;35268;42.642;23.308;2023-02-28T00:48:44;94360.50;;;7.71;79.10
49393;BME280;35268;42.642;23.308;2023-02-28T00:51:10;94368.72;;;7.69;79.02
49393;BME280;35268;42.642;23.308;2023-02-28T00:53:36;94358.03;;;7.55;78.99
49393;BME280;35268;42.642;23.308;2023-02-28T00:56:02;94364.44;;;7.49;79.63
49393;BME280;35268;42.642;23.308;2023-02-28T00:58:28;94375.16;;;7.39;79.67
49393;BME280;35268;42.642;23.308;2023-02-28T01:00:54;94372.31;;;7.30;80.14
49393;BME280;35268;42.642;23.308;2023-02-28T01:03:20;94370.50;;;7.26;80.04
49393;BME280;35268;42.642;23.308;2023-02-28T01:05:46;94365.78;;;7.17;80.20
49393;BME280;35268;42.642;23.308;2023-02-28T01:08:13;94372.47;;;7.10;80.42
49393;BME280;35268;42.642;23.308;2023-02-28T01:10:39;94362.81;;;6.95;80.94
49393;BME280;35268;42.642;23.308;2023-02-28T01:13:05;94368.94;;;6.90;81.33
49393;BME280;35268;42.642;23.308;2023-02-28T01:15:30;94363.16;;;6.83;81.79
49393;BME280;35268;42.642;23.308;2023-02-28T01:17:57;94369.81;;;6.80;82.52
49393;BME280;35268;42.642;23.308;2023-02-28T01:20:23;94367.69;;;6.77;82.99
49393;BME280;35268;42.642;23.308;2023-02-28T01:22:48;94364.53;;;6.75;83.34
49393;BME280;35268;42.642;23.308;2023-02-28T01:25:14;94358.97;;;6.77;83.37
49393;BME280;35268;42.642;23.308;2023-02-28T01:27:39;94344.88;;;6.81;83.31
49393;BME280;35268;42.642;23.308;2023-02-28T01:30:09;94358.97;;;6.77;83.55
49393;BME280;35268;42.642;23.308;2023-02-28T01:32:35;94362.72;;;6.71;83.63
49393;BME280;35268;42.642;23.308;2023-02-28T01:35:00;94357.69;;;6.69;84.07
49393;BME280;35268;42.642;23.308;2023-02-28T01:37:26;94355.00;;;6.74;84.20
49393;BME280;35268;42.642;23.308;2023-02-28T01:39:52;94364.50;;;6.80;84.51
49393;BME280;35268;42.642;23.308;2023-02-28T01:42:17;94363.16;;;6.83;84.78
49393;BME280;35268;42.642;23.308;2023-02-28T01:45:00;94367.91;;;6.86;84.25
49393;BME280;35268;42.642;23.308;2023-02-28T01:47:33;94368.69;;;6.87;84.26
49393;BME280;35268;42.642;23.308;2023-02-28T01:50:03;94372.13;;;6.87;84.43
49393;BME280;35268;42.642;23.308;2023-02-28T01:52:29;94370.78;;;6.90;84.48
49393;BME280;35268;42.642;23.308;2023-02-28T01:54:56;94371.28;;;6.92;84.06
49393;BME280;35268;42.642;23.308;2023-02-28T01:57:29;94371.28;;;6.92;83.75
49393;BME280;35268;42.642;23.308;2023-02-28T02:00:03;94380.66;;;6.84;83.42
49393;BME280;35268;42.642;23.308;2023-02-28T02:02:30;94372.72;;;6.79;83.46
49393;BME280;35268;42.642;23.308;2023-02-28T02:05:09;94370.66;;;6.71;83.82
49393;BME280;35268;42.642;23.308;2023-02-28T02:07:37;94374.94;;;6.67;83.81
49393;BME280;35268;42.642;23.308;2023-02-28T02:10:12;94361.72;;;6.61;84.32
49393;BME280;35268;42.642;23.308;2023-02-28T02:16:00;94368.91;;;6.56;84.82
49393;BME280;35268;42.642;23.308;2023-02-28T02:27:44;94354.19;;;6.39;86.16
49393;BME280;35268;42.642;23.308;2023-02-28T02:38:55;94359.25;;;6.31;86.55
49393;BME280;35268;42.642;23.308;2023-02-28T02:46:41;94366.25;;;6.11;87.42
49393;BME280;35268;42.642;23.308;2023-02-28T02:49:15;94366.22;;;6.16;87.61
49393;BME280;35268;42.642;23.308;2023-02-28T02:51:43;94364.09;;;6.18;87.83
49393;BME280;35268;42.642;23.308;2023-02-28T02:54:15;94362.75;;;6.21;87.81
49393;BME280;35268;42.642;23.308;2023-02-28T02:56:44;94376.25;;;6.19;87.60
49393;BME280;35268;42.642;23.308;2023-02-28T02:59:13;94379.97;;;6.18;87.62
49393;BME280;35268;42.642;23.308;2023-02-28T03:01:49;94386.84;;;6.19;87.67
49393;BME280;35268;42.642;23.308;2023-02-28T03:04:20;94386.28;;;6.22;87.63
49393;BME280;35268;42.642;23.308;2023-02-28T03:06:47;94387.94;;;6.13;87.50
49393;BME280;35268;42.642;23.308;2023-02-28T03:09:13;94402.22;;;6.12;87.77
49393;BME280;35268;42.642;23.308;2023-02-28T03:11:39;94394.81;;;6.14;88.18
49393;BME280;35268;42.642;23.308;2023-02-28T03:17:24;94404.81;;;6.22;88.38
49393;BME280;35268;42.642;23.308;2023-02-28T03:20:27;94413.03;;;6.26;88.59
49393;BME280;35268;42.642;23.308;2023-02-28T03:28:05;94410.81;;;6.43;88.00
49393;BME280;35268;42.642;23.308;2023-02-28T03:31:03;94415.56;;;6.47;87.61
49393;BME280;35268;42.642;23.308;2023-02-28T03:33:33;94409.75;;;6.50;87.43
49393;BME280;35268;42.642;23.308;2023-02-28T03:36:04;94421.38;;;6.54;87.04
49393;BME280;35268;42.642;23.308;2023-02-28T03:39:05;94419.50;;;6.59;86.86
49393;BME280;35268;42.642;23.308;2023-02-28T03:41:36;94420.22;;;6.65;86.74
49393;BME280;35268;42.642;23.308;2023-02-28T03:44:09;94425.00;;;6.68;86.57
49393;BME280;35268;42.642;23.308;2023-02-28T03:46:44;94428.41;;;6.74;86.29
49393;BME280;35268;42.642;23.308;2023-02-28T03:49:31;94422.03;;;6.75;86.02
49393;BME280;35268;42.642;23.308;2023-02-28T03:52:02;94424.69;;;6.75;85.98
49393;BME280;35268;42.642;23.308;2023-02-28T03:54:31;94430.75;;;6.80;85.59
49393;BME280;35268;42.642;23.308;2023-02-28T03:57:11;94431.00;;;6.84;85.48
49393;BME280;35268;42.642;23.308;2023-02-28T03:59:45;94429.66;;;6.87;85.18
49393;BME280;35268;42.642;23.308;2023-02-28T04:02:12;94422.22;;;6.83;84.76
49393;BME280;35268;42.642;23.308;2023-02-28T04:04:38;94428.56;;;6.88;84.69
49393;BME280;35268;42.642;23.308;2023-02-28T04:07:08;94420.91;;;6.86;84.56
49393;BME280;35268;42.642;23.308;2023-02-28T04:09:34;94427.53;;;6.83;84.43
49393;BME280;35268;42.642;23.308;2023-02-28T04:11:59;94426.47;;;6.85;84.76
49393;BME280;35268;42.642;23.308;2023-02-28T04:14:25;94430.69;;;6.86;84.59
49393;BME280;35268;42.642;23.308;2023-02-28T04:16:51;94431.50;;;6.86;84.24
49393;BME280;35268;42.642;23.308;2023-02-28T04:19:17;94434.38;;;6.90;83.93
49393;BME280;35268;42.642;23.308;2023-02-28T04:21:45;94426.44;;;6.90;83.61
49393;BME280;35268;42.642;23.308;2023-02-28T04:24:17;94426.22;;;6.86;83.22
49393;BME280;35268;42.642;23.308;2023-02-28T04:26:45;94427.78;;;6.87;83.43
49393;BME280;35268;42.642;23.308;2023-02-28T04:29:13;94426.75;;;6.83;82.87
49393;BME280;35268;42.642;23.308;2023-02-28T04:31:39;94422.00;;;6.80;82.51
49393;BME280;35268;42.642;23.308;2023-02-28T04:34:05;94430.75;;;6.80;82.39
49393;BME280;35268;42.642;23.308;2023-02-28T04:36:31;94425.72;;;6.79;82.45
49393;BME280;35268;42.642;23.308;2023-02-28T04:38:56;94427.31;;;6.80;81.84
49393;BME280;35268;42.642;23.308;2023-02-28T04:41:22;94435.53;;;6.78;81.68
49393;BME280;35268;42.642;23.308;2023-02-28T04:43:48;94434.75;;;6.73;81.91
49393;BME280;35268;42.642;23.308;2023-02-28T04:46:13;94444.31;;;6.74;81.86
49393;BME280;35268;42.642;23.308;2023-02-28T04:48:39;94441.91;;;6.72;81.98
49393;BME280;35268;42.642;23.308;2023-02-28T04:51:07;94446.94;;;6.74;81.85
49393;BME280;35268;42.642;23.308;2023-02-28T04:53:34;94445.63;;;6.71;81.99
49393;BME280;35268;42.642;23.308;2023-02-28T04:55:59;94453.88;;;6.70;81.76
49393;BME280;35268;42.642;23.308;2023-02-28T04:58:26;94462.09;;;6.68;81.75
49393;BME280;35268;42.642;23.308;2023-02-28T05:00:52;94460.72;;;6.71;81.80
49393;BME280;35268;42.642;23.308;2023-02-28T05:03:19;94461.81;;;6.70;81.79
49393;BME280;35268;42.642;23.308;2023-02-28T05:05:46;94458.91;;;6.66;81.68
49393;BME280;35268;42.642;23.308;2023-02-28T05:08:11;94454.97;;;6.63;81.85
49393;BME280;35268;42.642;23.308;2023-02-28T05:10:37;94461.03;;;6.64;81.87
49393;BME280;35268;42.642;23.308;2023-02-28T05:13:02;94450.19;;;6.66;81.95
49393;BME280;35268;42.642;23.308;2023-02-28T05:15:28;94460.47;;;6.67;81.90
49393;BME280;35268;42.642;23.308;2023-02-28T05:17:53;94457.56;;;6.69;81.84
49393;BME280;35268;42.642;23.308;2023-02-28T05:20:18;94461.28;;;6.68;81.69
49393;BME280;35268;42.642;23.308;2023-02-28T05:22:44;94459.19;;;6.65;82.10
49393;BME280;35268;42.642;23.308;2023-02-28T05:25:17;94467.13;;;6.65;82.38
49393;BME280;35268;42.642;23.308;2023-02-28T05:27:43;94467.16;;;6.59;82.66
49393;BME280;35268;42.642;23.308;2023-02-28T05:30:10;94477.47;;;6.61;82.75
49393;BME280;35268;42.642;23.308;2023-02-28T05:32:38;94480.63;;;6.63;82.83
49393;BME280;35268;42.642;23.308;2023-02-28T05:35:04;94479.84;;;6.68;82.73
49393;BME280;35268;42.642;23.308;2023-02-28T05:37:29;94476.91;;;6.69;82.50
49393;BME280;35268;42.642;23.308;2023-02-28T05:39:55;94488.25;;;6.75;82.44
49393;BME280;35268;42.642;23.308;2023-02-28T05:42:20;94477.91;;;6.78;82.15
49393;BME280;35268;42.642;23.308;2023-02-28T05:44:46;94491.41;;;6.82;82.07
49393;BME280;35268;42.642;23.308;2023-02-28T05:47:11;94480.78;;;6.87;81.93
49393;BME280;35268;42.642;23.308;2023-02-28T05:49:40;94483.41;;;6.92;81.63
49393;BME280;35268;42.642;23.308;2023-02-28T05:52:06;94491.88;;;6.94;81.40
49393;BME280;35268;42.642;23.308;2023-02-28T05:54:32;94496.09;;;6.95;81.23
49393;BME280;35268;42.642;23.308;2023-02-28T05:56:57;94497.97;;;6.95;81.31
49393;BME280;35268;42.642;23.308;2023-02-28T05:59:23;94500.88;;;6.98;81.39
49393;BME280;35268;42.642;23.308;2023-02-28T06:01:48;94493.13;;;7.02;81.40
49393;BME280;35268;42.642;23.308;2023-02-28T06:04:15;94497.13;;;7.05;81.16
49393;BME280;35268;42.642;23.308;2023-02-28T06:06:50;94498.44;;;7.02;81.05
49393;BME280;35268;42.642;23.308;2023-02-28T06:09:17;94498.94;;;7.09;80.41
49393;BME280;35268;42.642;23.308;2023-02-28T06:11:42;94493.63;;;7.09;80.64
49393;BME280;35268;42.642;23.308;2023-02-28T06:14:14;94486.97;;;7.12;80.67
49393;BME280;35268;42.642;23.308;2023-02-28T06:16:40;94492.28;;;7.12;80.52
49393;BME280;35268;42.642;23.308;2023-02-28T06:19:06;94495.69;;;7.17;80.45
49393;BME280;35268;42.642;23.308;2023-02-28T06:21:31;94489.03;;;7.20;80.44
49393;BME280;35268;42.642;23.308;2023-02-28T06:23:57;94491.16;;;7.23;80.53
49393;BME280;35268;42.642;23.308;2023-02-28T06:26:24;94488.19;;;7.30;80.27
49393;BME280;35268;42.642;23.308;2023-02-28T06:28:50;94495.88;;;7.31;80.41
49393;BME280;35268;42.642;23.308;2023-02-28T06:31:16;94493.75;;;7.33;80.36
49393;BME280;35268;42.642;23.308;2023-02-28T06:33:44;94498.19;;;7.38;80.00
49393;BME280;35268;42.642;23.308;2023-02-28T06:36:11;94507.25;;;7.37;79.31
49393;BME280;35268;42.642;23.308;2023-02-28T06:38:38;94505.66;;;7.36;79.84
49393;BME280;35268;42.642;23.308;2023-02-28T06:41:04;94506.44;;;7.36;80.13
49393;BME280;35268;42.642;23.308;2023-02-28T06:43:33;94518.13;;;7.30;79.74
49393;BME280;35268;42.642;23.308;2023-02-28T06:46:01;94512.84;;;7.30;79.55
49393;BME280;35268;42.642;23.308;2023-02-28T06:48:27;94502.75;;;7.32;80.14
49393;BME280;35268;42.642;23.308;2023-02-28T06:51:04;94518.38;;;7.39;79.98
49393;BME280;35268;42.642;23.308;2023-02-28T06:53:30;94514.88;;;7.43;80.03
49393;BME280;35268;42.642;23.308;2023-02-28T06:55:56;94519.41;;;7.43;79.86
49393;BME280;35268;42.642;23.308;2023-02-28T06:58:21;94524.97;;;7.41;79.65
49393;BME280;35268;42.642;23.308;2023-02-28T07:00:51;94520.25;;;7.33;79.77
49393;BME280;35268;42.642;23.308;2023-02-28T07:03:17;94517.09;;;7.26;80.16
49393;BME280;35268;42.642;23.308;2023-02-28T07:05:43;94515.03;;;7.23;80.49
49393;BME280;35268;42.642;23.308;2023-02-28T07:08:09;94514.50;;;7.21;81.16
49393;BME280;35268;42.642;23.308;2023-02-28T07:10:37;94516.91;;;7.17;81.51
49393;BME280;35268;42.642;23.308;2023-02-28T07:13:04;94526.16;;;7.20;81.45
49393;BME280;35268;42.642;23.308;2023-02-28T07:15:30;94520.34;;;7.18;81.44
49393;BME280;35268;42.642;23.308;2023-02-28T07:17:55;94513.19;;;7.18;81.31
49393;BME280;35268;42.642;23.308;2023-02-28T07:20:22;94511.28;;;7.24;82.33
49393;BME280;35268;42.642;23.308;2023-02-28T07:22:48;94513.44;;;7.22;82.01
49393;BME280;35268;42.642;23.308;2023-02-28T07:25:21;94519.75;;;7.26;82.06
49393;BME280;35268;42.642;23.308;2023-02-28T07:27:46;94518.22;;;7.20;81.47
49393;BME280;35268;42.642;23.308;2023-02-28T07:30:12;94526.72;;;7.17;81.13
49393;BME280;35268;42.642;23.308;2023-02-28T07:32:37;94528.28;;;7.18;81.58
49393;BME280;35268;42.642;23.308;2023-02-28T07:35:03;94513.19;;;7.18;81.50
49393;BME280;35268;42.642;23.308;2023-02-28T07:37:59;94515.81;;;7.18;81.62
49393;BME280;35268;42.642;23.308;2023-02-28T07:40:25;94528.81;;;7.20;81.72
49393;BME280;35268;42.642;23.308;2023-02-28T07:42:51;94530.94;;;7.18;81.67
49393;BME280;35268;42.642;23.308;2023-02-28T07:45:16;94529.66;;;7.15;81.81
49393;BME280;35268;42.642;23.308;2023-02-28T07:47:42;94527.25;;;7.19;82.49
49393;BME280;35268;42.642;23.308;2023-02-28T07:50:11;94520.63;;;7.16;82.55
49393;BME280;35268;42.642;23.308;2023-02-28T07:52:38;94520.34;;;7.18;82.90
49393;BME280;35268;42.642;23.308;2023-02-28T07:55:04;94511.84;;;7.21;82.42
49393;BME280;35268;42.642;23.308;2023-02-28T07:57:30;94518.19;;;7.25;82.09
49393;BME280;35268;42.642;23.308;2023-02-28T07:59:55;94511.03;;;7.26;82.00
49393;BME280;35268;42.642;23.308;2023-02-28T08:02:21;94518.97;;;7.31;81.80
49393;BME280;35268;42.642;23.308;2023-02-28T08:04:47;94515.22;;;7.32;81.80
49393;BME280;35268;42.642;23.308;2023-02-28T08:07:13;94514.69;;;7.35;82.18
49393;BME280;35268;42.642;23.308;2023-02-28T08:09:40;94511.50;;;7.33;81.81
49393;BME280;35268;42.642;23.308;2023-02-28T08:12:06;94517.34;;;7.35;82.01
49393;BME280;35268;42.642;23.308;2023-02-28T08:14:33;94515.97;;;7.37;81.93
49393;BME280;35268;42.642;23.308;2023-02-28T08:16:58;94520.22;;;7.38;82.35
49393;BME280;35268;42.642;23.308;2023-02-28T08:19:24;94524.47;;;7.39;82.29
49393;BME280;35268;42.642;23.308;2023-02-28T08:21:49;94515.41;;;7.46;82.52
49393;BME280;35268;42.642;23.308;2023-02-28T08:24:14;94526.53;;;7.48;82.27
49393;BME280;35268;42.642;23.308;2023-02-28T08:26:40;94521.47;;;7.51;82.43
49393;BME280;35268;42.642;23.308;2023-02-28T08:29:05;94514.81;;;7.49;81.97
49393;BME280;35268;42.642;23.308;2023-02-28T08:31:31;94520.38;;;7.52;81.68
49393;BME280;35268;42.642;23.308;2023-02-28T08:33:56;94527.31;;;7.48;81.46
49393;BME280;35268;42.642;23.308;2023-02-28T08:36:24;94536.69;;;7.35;82.21
49393;BME280;35268;42.642;23.308;2023-02-28T08:38:50;94528.22;;;7.33;82.84
49393;BME280;35268;42.642;23.308;2023-02-28T08:41:15;94525.88;;;7.27;83.48
49393;BME280;35268;42.642;23.308;2023-02-28T08:43:41;94534.63;;;7.22;83.70
49393;BME280;35268;42.642;23.308;2023-02-28T08:46:07;94534.09;;;7.25;84.15
49393;BME280;35268;42.642;23.308;2023-02-28T08:48:34;94527.44;;;7.28;84.69
49393;BME280;35268;42.642;23.308;2023-02-28T08:51:03;94533.00;;;7.31;84.57
49393;BME280;35268;42.642;23.308;2023-02-28T08:53:29;94533.06;;;7.21;84.43
49393;BME280;35268;42.642;23.308;2023-02-28T08:56:03;94534.94;;;7.15;85.04
49393;BME280;35268;42.642;23.308;2023-02-28T08:58:30;94546.34;;;7.16;85.60
49393;BME280;35268;42.642;23.308;2023-02-28T09:00:55;94544.25;;;7.13;85.35
49393;BME280;35268;42.642;23.308;2023-02-28T09:03:22;94540.03;;;7.07;85.35
49393;BME280;35268;42.642;23.308;2023-02-28T09:05:54;94537.34;;;7.12;85.44
49393;BME280;35268;42.642;23.308;2023-02-28T09:08:20;94536.78;;;7.20;85.75
49393;BME280;35268;42.642;23.308;2023-02-28T09:10:46;94532.47;;;7.29;85.76
49393;BME280;35268;42.642;23.308;2023-02-28T09:13:12;94533.47;;;7.38;84.91
49393;BME280;35268;42.642;23.308;2023-02-28T09:15:38;94518.03;;;7.46;84.78
49393;BME280;35268;42.642;23.308;2023-02-28T09:18:03;94522.78;;;7.49;84.29
49393;BME280;35268;42.642;23.308;2023-02-28T09:20:29;94534.94;;;7.55;84.49
49393;BME280;35268;42.642;23.308;2023-02-28T09:22:54;94527.72;;;7.66;84.08
49393;BME280;35268;42.642;23.308;2023-02-28T09:25:20;94530.47;;;7.84;84.16
49393;BME280;35268;42.642;23.308;2023-02-28T09:27:45;94519.66;;;8.05;84.22
49393;BME280;35268;42.642;23.308;2023-02-28T09:30:12;94523.13;;;8.30;83.10
49393;BME280;35268;42.642;23.308;2023-02-28T09:32:38;94520.84;;;8.47;82.29
49393;BME280;35268;42.642;23.308;2023-02-28T09:35:04;94528.63;;;8.62;81.23
49393;BME280;35268;42.642;23.308;2023-02-28T09:37:29;94523.66;;;8.80;80.34
49393;BME280;35268;42.642;23.308;2023-02-28T09:39:56;94517.69;;;8.88;79.28
49393;BME280;35268;42.642;23.308;2023-02-28T09:42:26;94526.31;;;8.99;79.24
49393;BME280;35268;42.642;23.308;2023-02-28T09:44:53;94518.16;;;9.14;78.58
49393;BME280;35268;42.642;23.308;2023-02-28T09:47:36;94521.16;;;9.27;78.24
49393;BME280;35268;42.642;23.308;2023-02-28T09:50:19;94513.31;;;9.35;78.04
49393;BME280;35268;42.642;23.308;2023-02-28T09:52:49;94508.50;;;9.37;78.44
49393;BME280;35268;42.642;23.308;2023-02-28T09:57:41;94510.72;;;9.49;77.78
49393;BME280;35268;42.642;23.308;2023-02-28T10:08:28;94498.63;;;9.57;77.40
49393;BME280;35268;42.642;23.308;2023-02-28T10:11:07;94495.66;;;9.58;77.36
49393;BME280;35268;42.642;23.308;2023-02-28T10:14:20;94491.16;;;9.59;77.19
49393;BME280;35268;42.642;23.308;2023-02-28T10:16:53;94494.81;;;9.63;77.17
49393;BME280;35268;42.642;23.308;2023-02-28T10:22:17;94484.66;;;9.65;77.75
49393;BME280;35268;42.642;23.308;2023-02-28T10:24:54;94484.50;;;9.75;78.38
49393;BME280;35268;42.642;23.308;2023-02-28T10:27:28;94476.91;;;9.82;77.31
49393;BME280;35268;42.642;23.308;2023-02-28T10:29:56;94480.00;;;9.90;76.79
49393;BME280;35268;42.642;23.308;2023-02-28T10:32:26;94477.34;;;10.03;76.00
49393;BME280;35268;42.642;23.308;2023-02-28T10:37:40;94459.63;;;10.27;76.19
49393;BME280;35268;42.642;23.308;2023-02-28T10:40:27;94457.47;;;10.42;75.91
49393;BME280;35268;42.642;23.308;2023-02-28T10:45:22;94452.34;;;10.96;73.83
49393;BME280;35268;42.642;23.308;2023-02-28T10:47:56;94439.53;;;11.21;72.67
49393;BME280;35268;42.642;23.308;2023-02-28T10:55:35;94431.38;;;11.71;70.15
49393;BME280;35268;42.642;23.308;2023-02-28T10:58:01;94424.34;;;11.75;69.18
49393;BME280;35268;42.642;23.308;2023-02-28T11:00:34;94428.22;;;11.92;68.72
49393;BME280;35268;42.642;23.308;2023-02-28T11:03:00;94419.94;;;12.02;67.95
49393;BME280;35268;42.642;23.308;2023-02-28T11:05:33;94416.53;;;12.19;66.97
49393;BME280;35268;42.642;23.308;2023-02-28T11:10:30;94415.56;;;12.55;64.95
49393;BME280;35268;42.642;23.308;2023-02-28T11:13:00;94405.97;;;12.54;64.29
49393;BME280;35268;42.642;23.308;2023-02-28T11:15:35;94408.00;;;12.65;63.13
49393;BME280;35268;42.642;23.308;2023-02-28T11:20:38;94412.09;;;12.72;61.93
49393;BME280;35268;42.642;23.308;2023-02-28T11:23:05;94404.09;;;12.72;62.09
49393;BME280;35268;42.642;23.308;2023-02-28T11:25:38;94401.88;;;12.74;61.69
49393;BME280;35268;42.642;23.308;2023-02-28T11:28:06;94389.47;;;12.78;62.06
49393;BME280;35268;42.642;23.308;2023-02-28T11:33:52;94404.59;;;12.91;61.65
49393;BME280;35268;42.642;23.308;2023-02-28T11:38:46;94392.16;;;12.87;61.67
49393;BME280;35268;42.642;23.308;2023-02-28T11:52:53;94386.00;;;12.86;61.86
49393;BME280;35268;42.642;23.308;2023-02-28T12:03:20;94373.59;;;12.99;60.61
49393;BME280;35268;42.642;23.308;2023-02-28T12:08:49;94380.97;;;13.11;60.44
49393;BME280;35268;42.642;23.308;2023-02-28T12:14:25;94367.88;;;13.27;59.38
49393;BME280;35268;42.642;23.308;2023-02-28T12:17:26;94378.00;;;13.30;58.92
49393;BME280;35268;42.642;23.308;2023-02-28T12:20:13;94369.47;;;13.28;58.85
49393;BME280;35268;42.642;23.308;2023-02-28T12:25:37;94370.25;;;13.37;58.51
49393;BME280;35268;42.642;23.308;2023-02-28T12:28:09;94366.19;;;13.39;58.79
49393;BME280;35268;42.642;23.308;2023-02-28T12:30:43;94369.47;;;13.45;59.02
49393;BME280;35268;42.642;23.308;2023-02-28T12:33:14;94361.94;;;13.38;58.24
49393;BME280;35268;42.642;23.308;2023-02-28T12:35:49;94381.91;;;13.41;58.42
49393;BME280;35268;42.642;23.308;2023-02-28T12:38:19;94379.09;;;13.37;57.55
49393;BME280;35268;42.642;23.308;2023-02-28T12:40:48;94378.59;;;13.27;57.99
49393;BME280;35268;42.642;23.308;2023-02-28T12:43:16;94372.16;;;13.19;57.98
49393;BME280;35268;42.642;23.308;2023-02-28T12:48:14;94370.44;;;13.05;58.76
49393;BME280;35268;42.642;23.308;2023-02-28T12:50:41;94380.66;;;13.03;59.28
49393;BME280;35268;42.642;23.308;2023-02-28T12:53:18;94367.59;;;13.11;59.20
49393;BME280;35268;42.642;23.308;2023-02-28T13:09:57;94362.22;;;13.28;58.41
49393;BME280;35268;42.642;23.308;2023-02-28T13:12:23;94370.25;;;13.37;58.31
49393;BME280;35268;42.642;23.308;2023-02-28T13:14:50;94361.28;;;13.33;57.58
49393;BME280;35268;42.642;23.308;2023-02-28T13:17:20;94370.25;;;13.28;57.82
49393;BME280;35268;42.642;23.308;2023-02-28T13:22:42;94362.41;;;13.05;58.25
49393;BME280;35268;42.642;23.308;2023-02-28T13:28:11;94360.19;;;12.90;58.84
49393;BME280;35268;42.642;23.308;2023-02-28T13:33:33;94360.50;;;12.80;58.99
49393;BME280;35268;42.642;23.308;2023-02-28T13:38:50;94354.84;;;12.73;58.84
49393;BME280;35268;42.642;23.308;2023-02-28T13:49:26;94350.28;;;12.64;59.26
49393;BME280;35268;42.642;23.308;2023-02-28T13:54:27;94338.47;;;12.65;60.01
49393;BME280;35268;42.642;23.308;2023-02-28T13:57:30;94339.91;;;12.63;59.73
49393;BME280;35268;42.642;23.308;2023-02-28T14:05:23;94340.06;;;12.67;59.63
49393;BME280;35268;42.642;23.308;2023-02-28T14:07:57;94345.09;;;12.59;59.52
49393;BME280;35268;42.642;23.308;2023-02-28T14:11:05;94340.03;;;12.49;59.99
49393;BME280;35268;42.642;23.308;2023-02-28T14:13:41;94347.41;;;12.43;60.71
49393;BME280;35268;42.642;23.308;2023-02-28T14:16:13;94346.16;;;12.41;60.55
49393;BME280;35268;42.642;23.308;2023-02-28T14:18:50;94332.63;;;12.37;60.47
49393;BME280;35268;42.642;23.308;2023-02-28T14:21:20;94327.44;;;12.41;59.92
49393;BME280;35268;42.642;23.308;2023-02-28T14:37:33;94335.13;;;12.25;59.98
49393;BME280;35268;42.642;23.308;2023-02-28T14:40:15;94327.44;;;12.23;59.96
49393;BME280;35268;42.642;23.308;2023-02-28T14:42:59;94337.78;;;12.25;59.92
49393;BME280;35268;42.642;23.308;2023-02-28T14:45:28;94328.22;;;12.24;59.83
49393;BME280;35268;42.642;23.308;2023-02-28T14:47:56;94339.69;;;12.16;60.25
49393;BME280;35268;42.642;23.308;2023-02-28T14:50:33;94331.19;;;12.22;60.38
49393;BME280;35268;42.642;23.308;2023-02-28T14:53:03;94335.59;;;12.18;59.91
49393;BME280;35268;42.642;23.308;2023-02-28T14:55:35;94336.06;;;12.12;60.67
49393;BME280;35268;42.642;23.308;2023-02-28T14:58:03;94329.44;;;12.09;61.03
49393;BME280;35268;42.642;23.308;2023-02-28T15:00:37;94338.53;;;12.08;61.65
49393;BME280;35268;42.642;23.308;2023-02-28T15:03:32;94343.56;;;12.01;61.56
49393;BME280;35268;42.642;23.308;2023-02-28T15:06:01;94336.00;;;11.94;61.11
49393;BME280;35268;42.642;23.308;2023-02-28T15:08:28;94323.09;;;11.96;61.30
49393;BME280;35268;42.642;23.308;2023-02-28T15:13:21;94334.72;;;11.92;62.74
49393;BME280;35268;42.642;23.308;2023-02-28T15:15:55;94336.63;;;11.91;62.84
49393;BME280;35268;42.642;23.308;2023-02-28T15:20:50;94334.78;;;11.69;63.86
49393;BME280;35268;42.642;23.308;2023-02-28T15:23:17;94338.66;;;11.54;64.26
49393;BME280;35268;42.642;23.308;2023-02-28T15:25:44;94343.91;;;11.45;64.66
49393;BME280;35268;42.642;23.308;2023-02-28T15:28:14;94344.19;;;11.35;65.07
49393;BME280;35268;42.642;23.308;2023-02-28T15:30:51;94343.84;;;11.28;65.09
49393;BME280;35268;42.642;23.308;2023-02-28T15:33:20;94345.97;;;11.17;65.46
49393;BME280;35268;42.642;23.308;2023-02-28T15:35:47;94350.28;;;11.04;65.97
49393;BME280;35268;42.642;23.308;2023-02-28T15:38:25;94345.22;;;11.03;66.26
49393;BME280;35268;42.642;23.308;2023-02-28T15:40:55;94343.78;;;10.97;66.72
49393;BME280;35268;42.642;23.308;2023-02-28T15:45:55;94343.19;;;10.77;67.25
49393;BME280;35268;42.642;23.308;2023-02-28T15:48:24;94343.22;;;10.63;67.86
49393;BME280;35268;42.642;23.308;2023-02-28T15:50:53;94338.31;;;10.57;67.94